createdAt,value
2018-08-17T00:00:08.150Z,2.98
2018-08-17T00:02:36.789Z,2.80
2018-08-17T00:05:05.366Z,2.58
2018-08-17T00:07:33.970Z,3.08
2018-08-17T00:10:02.586Z,2.72
2018-08-17T00:12:31.235Z,2.55
2018-08-17T00:14:59.855Z,2.62
2018-08-17T00:17:28.354Z,2.20
2018-08-17T00:19:56.970Z,2.00
2018-08-17T00:22:25.808Z,1.80
2018-08-17T00:24:54.419Z,1.47
2018-08-17T00:27:23.078Z,1.50
2018-08-17T00:29:51.762Z,1.77
2018-08-17T00:32:20.652Z,1.50
2018-08-17T00:34:49.648Z,1.90
2018-08-17T00:37:18.535Z,1.30
2018-08-17T00:39:47.220Z,1.60
2018-08-17T00:42:15.805Z,1.50
2018-08-17T00:44:44.329Z,1.27
2018-08-17T00:47:12.914Z,1.62
2018-08-17T00:49:41.546Z,1.65
2018-08-17T00:52:10.037Z,1.72
2018-08-17T00:54:38.820Z,1.65
2018-08-17T00:57:07.455Z,1.35
2018-08-17T00:59:36.087Z,1.70
2018-08-17T01:02:04.774Z,2.00
2018-08-17T01:04:33.303Z,1.20
2018-08-17T01:07:01.938Z,1.75
2018-08-17T01:09:30.467Z,1.27
2018-08-17T01:11:59.106Z,1.37
2018-08-17T01:14:27.635Z,1.40
2018-08-17T01:16:56.271Z,1.40
2018-08-17T01:19:24.805Z,1.52
2018-08-17T01:21:53.364Z,1.30
2018-08-17T01:24:22.223Z,1.30
2018-08-17T01:26:50.805Z,1.50
2018-08-17T01:29:19.389Z,1.40
2018-08-17T01:31:48.059Z,1.17
2018-08-17T01:34:16.611Z,1.40
2018-08-17T01:36:45.195Z,1.32
2018-08-17T01:39:13.824Z,1.30
2018-08-17T01:41:42.409Z,1.00
2018-08-17T01:44:10.975Z,1.20
2018-08-17T01:46:40.198Z,1.10
2018-08-17T01:49:09.390Z,1.10
2018-08-17T01:51:37.927Z,1.37
2018-08-17T01:54:07.211Z,1.05
2018-08-17T01:56:35.720Z,1.30
2018-08-17T01:59:04.898Z,1.25
2018-08-17T02:01:33.526Z,1.17
2018-08-17T02:04:02.827Z,1.30
2018-08-17T02:06:32.228Z,1.27
2018-08-17T02:09:00.758Z,1.42
2018-08-17T02:11:29.344Z,1.27
2018-08-17T02:13:57.976Z,1.30
2018-08-17T02:16:26.527Z,1.55
2018-08-17T02:18:55.091Z,1.30
2018-08-17T02:21:23.982Z,1.42
2018-08-17T02:23:52.567Z,1.60
2018-08-17T02:26:21.200Z,1.27
2018-08-17T02:28:49.787Z,1.32
2018-08-17T02:31:18.584Z,1.30
2018-08-17T02:33:47.234Z,1.27
2018-08-17T02:36:15.839Z,1.22
2018-08-17T02:38:44.421Z,1.57
2018-08-17T02:41:13.007Z,1.40
2018-08-17T02:43:41.673Z,1.80
2018-08-17T02:46:10.235Z,1.70
2018-08-17T02:48:38.856Z,1.82
2018-08-17T02:51:07.395Z,1.87
2018-08-17T02:53:35.919Z,1.60
2018-08-17T02:56:04.553Z,1.92
2018-08-17T02:58:33.102Z,1.75
2018-08-17T03:01:01.666Z,1.95
2018-08-17T03:03:31.068Z,2.10
2018-08-17T03:05:59.595Z,2.00
2018-08-17T03:08:28.234Z,1.87
2018-08-17T03:10:56.817Z,2.67
2018-08-17T03:13:26.083Z,1.90
2018-08-17T03:15:54.802Z,2.10
2018-08-17T03:18:23.301Z,1.98
2018-08-17T03:20:51.871Z,2.05
2018-08-17T03:23:20.552Z,1.98
2018-08-17T03:25:49.648Z,1.80
2018-08-17T03:28:18.278Z,2.35
2018-08-17T03:30:46.879Z,1.37
2018-08-17T03:33:15.496Z,2.05
2018-08-17T03:35:44.081Z,1.50
2018-08-17T03:38:12.757Z,1.80
2018-08-17T03:40:41.275Z,1.60
2018-08-17T03:43:09.930Z,1.40
2018-08-17T03:45:38.456Z,1.37
2018-08-17T03:48:07.565Z,1.72
2018-08-17T03:50:36.352Z,1.17
2018-08-17T03:53:04.979Z,1.40
2018-08-17T03:55:33.619Z,1.90
2018-08-17T03:58:02.253Z,1.55
2018-08-17T04:00:30.835Z,1.25
2018-08-17T04:02:59.619Z,1.42
2018-08-17T04:05:28.917Z,1.10
2018-08-17T04:07:58.115Z,1.77
2018-08-17T04:10:26.731Z,1.37
2018-08-17T04:12:55.239Z,1.30
2018-08-17T04:15:23.846Z,1.42
2018-08-17T04:17:52.457Z,1.60
2018-08-17T04:20:21.132Z,1.10
2018-08-17T04:22:49.716Z,1.17
2018-08-17T04:25:18.218Z,1.10
2018-08-17T04:27:46.758Z,1.45
2018-08-17T04:30:15.319Z,1.17
2018-08-17T04:32:43.896Z,1.20
2018-08-17T04:35:12.527Z,1.30
2018-08-17T04:37:41.417Z,0.93
2018-08-17T04:40:10.004Z,1.22
2018-08-17T04:42:38.675Z,1.20
2018-08-17T04:45:08.176Z,1.15
2018-08-17T04:47:36.877Z,1.27
2018-08-17T04:50:06.327Z,1.27
2018-08-17T04:52:34.862Z,1.10
2018-08-17T04:55:03.544Z,1.10
2018-08-17T04:57:32.075Z,1.20
2018-08-17T05:00:00.715Z,1.10
2018-08-17T05:02:29.364Z,1.30
2018-08-17T05:04:57.937Z,1.20
2018-08-17T05:07:26.458Z,1.10
2018-08-17T05:09:54.983Z,1.40
2018-08-17T05:12:23.625Z,1.20
2018-08-17T05:14:52.122Z,0.80
2018-08-17T05:17:20.755Z,1.00
2018-08-17T05:19:49.353Z,1.12
2018-08-17T05:22:17.875Z,0.90
2018-08-17T05:24:46.454Z,0.62
2018-08-17T05:27:14.963Z,0.90
2018-08-17T05:29:43.565Z,0.90
2018-08-17T05:32:12.289Z,1.10
2018-08-17T05:34:40.812Z,1.27
2018-08-17T05:37:09.321Z,1.10
2018-08-17T05:39:37.934Z,0.93
2018-08-17T05:42:06.588Z,1.12
2018-08-17T05:44:36.432Z,1.02
2018-08-17T05:47:05.072Z,1.05
2018-08-17T05:49:34.315Z,0.90
2018-08-17T05:52:02.943Z,1.17
2018-08-17T05:54:31.788Z,1.17
2018-08-17T05:57:00.349Z,1.40
2018-08-17T05:59:28.917Z,1.30
2018-08-17T06:01:57.643Z,1.07
2018-08-17T06:04:26.255Z,1.07
2018-08-17T06:06:55.352Z,1.12
2018-08-17T06:09:24.617Z,1.30
2018-08-17T06:11:53.151Z,1.25
2018-08-17T06:14:21.784Z,1.62
2018-08-17T06:16:50.365Z,1.20
2018-08-17T06:19:19.594Z,1.17
2018-08-17T06:21:48.129Z,1.20
2018-08-17T06:24:16.793Z,1.45
2018-08-17T06:26:45.439Z,1.15
2018-08-17T06:29:14.762Z,1.20
2018-08-17T06:31:44.409Z,1.17
2018-08-17T06:34:12.974Z,1.10
2018-08-17T06:36:41.526Z,1.32
2018-08-17T06:39:11.542Z,1.50
2018-08-17T06:41:40.399Z,1.30
2018-08-17T06:44:09.128Z,1.10
2018-08-17T06:46:37.679Z,1.47
2018-08-17T06:49:06.923Z,1.37
2018-08-17T06:51:35.747Z,1.40
2018-08-17T06:54:04.343Z,1.40
2018-08-17T06:56:33.507Z,1.27
2018-08-17T06:59:02.034Z,1.20
2018-08-17T07:01:32.103Z,1.20
2018-08-17T07:04:00.670Z,1.10
2018-08-17T07:06:29.397Z,1.20
2018-08-17T07:08:58.014Z,1.10
2018-08-17T07:11:26.664Z,1.10
2018-08-17T07:13:55.338Z,0.95
2018-08-17T07:16:24.819Z,1.00
2018-08-17T07:18:53.405Z,1.20
2018-08-17T07:21:22.022Z,1.30
2018-08-17T07:23:51.386Z,1.32
2018-08-17T07:26:19.963Z,1.35
2018-08-17T07:28:48.586Z,1.32
2018-08-17T07:31:17.169Z,1.80
2018-08-17T07:33:45.855Z,1.40
2018-08-17T07:36:14.542Z,1.00
2018-08-17T07:38:43.043Z,0.88
2018-08-17T07:41:11.709Z,0.85
2018-08-17T07:43:40.380Z,0.78
2018-08-17T07:46:10.163Z,0.85
2018-08-17T07:48:39.442Z,0.90
2018-08-17T07:51:08.605Z,0.90
2018-08-17T07:53:38.716Z,1.02
2018-08-17T07:56:07.355Z,1.05
2018-08-17T07:58:35.984Z,1.02
2018-08-17T08:01:04.619Z,1.30
2018-08-17T08:03:33.204Z,1.20
2018-08-17T08:06:02.419Z,1.35
2018-08-17T08:08:30.950Z,1.40
2018-08-17T08:11:00.596Z,1.42
2018-08-17T08:13:29.088Z,1.80
2018-08-17T08:15:57.706Z,1.27
2018-08-17T08:18:26.740Z,1.27
2018-08-17T08:20:56.200Z,1.35
2018-08-17T08:23:28.278Z,1.37
2018-08-17T08:25:59.543Z,1.40
2018-08-17T08:28:29.530Z,1.40
2018-08-17T08:30:59.791Z,1.45
2018-08-17T08:33:29.418Z,1.92
2018-08-17T08:35:58.757Z,1.37
2018-08-17T08:38:29.025Z,1.37
2018-08-17T08:40:59.508Z,1.45
2018-08-17T08:43:30.318Z,1.40
2018-08-17T08:46:00.095Z,1.10
2018-08-17T08:48:29.866Z,1.55
2018-08-17T08:51:00.599Z,1.30
2018-08-17T08:53:29.895Z,1.60
2018-08-17T08:55:59.594Z,1.45
2018-08-17T08:58:28.612Z,1.20
2018-08-17T09:00:57.134Z,1.30
2018-08-17T09:03:26.493Z,1.20
2018-08-17T09:05:55.102Z,1.30
2018-08-17T09:08:23.751Z,1.30
2018-08-17T09:10:52.271Z,1.27
2018-08-17T09:13:20.878Z,1.27
2018-08-17T09:15:49.446Z,1.50
2018-08-17T09:18:18.902Z,1.45
2018-08-17T09:20:47.590Z,1.40
2018-08-17T09:23:16.091Z,1.40
2018-08-17T09:25:44.751Z,1.40
2018-08-17T09:28:13.443Z,1.20
2018-08-17T09:30:42.019Z,1.37
2018-08-17T09:33:10.663Z,1.20
2018-08-17T09:35:39.370Z,1.35
2018-08-17T09:38:08.011Z,1.30
2018-08-17T09:40:37.185Z,1.02
2018-08-17T09:43:05.988Z,1.05
2018-08-17T09:45:34.644Z,0.93
2018-08-17T09:48:03.386Z,1.00
2018-08-17T09:50:32.013Z,0.90
2018-08-17T09:53:00.619Z,1.55
2018-08-17T09:55:29.130Z,1.40
2018-08-17T09:57:57.625Z,1.05
2018-08-17T10:00:32.198Z,1.05
2018-08-17T10:03:06.397Z,0.90
2018-08-17T10:05:38.673Z,1.02
2018-08-17T10:08:12.321Z,1.10
2018-08-17T10:10:41.020Z,0.90
2018-08-17T10:13:09.646Z,1.10
2018-08-17T10:15:38.151Z,1.20
2018-08-17T10:18:06.760Z,0.95
2018-08-17T10:20:35.407Z,1.30
2018-08-17T10:23:10.936Z,0.95
2018-08-17T10:25:40.051Z,1.17
2018-08-17T10:28:09.350Z,1.20
2018-08-17T10:30:38.013Z,1.20
2018-08-17T10:33:06.519Z,1.17
2018-08-17T10:35:36.356Z,0.90
2018-08-17T10:38:07.151Z,1.20
2018-08-17T10:40:35.649Z,0.85
2018-08-17T10:43:05.805Z,1.52
2018-08-17T10:45:34.890Z,1.22
2018-08-17T10:48:03.749Z,1.50
2018-08-17T10:50:33.443Z,1.42
2018-08-17T10:53:03.193Z,1.35
2018-08-17T10:55:41.732Z,1.60
2018-08-17T10:58:13.183Z,1.30
2018-08-17T11:00:42.000Z,1.30
2018-08-17T11:03:10.821Z,1.30
2018-08-17T11:05:39.426Z,1.20
2018-08-17T11:08:08.297Z,1.00
2018-08-17T11:10:36.945Z,1.22
2018-08-17T11:13:05.733Z,1.22
2018-08-17T11:15:34.340Z,0.93
2018-08-17T11:18:03.005Z,1.17
2018-08-17T11:20:31.676Z,1.05
2018-08-17T11:23:00.536Z,0.82
2018-08-17T11:25:29.111Z,1.07
2018-08-17T11:27:57.665Z,1.60
2018-08-17T11:30:26.263Z,1.10
2018-08-17T11:32:54.846Z,0.80
2018-08-17T11:35:23.435Z,1.07
2018-08-17T11:37:52.118Z,1.10
2018-08-17T11:40:20.679Z,0.78
2018-08-17T11:42:50.320Z,0.85
2018-08-17T11:45:27.234Z,1.22
2018-08-17T11:47:57.059Z,0.90
2018-08-17T11:50:26.637Z,0.90
2018-08-17T11:52:56.575Z,1.12
2018-08-17T11:55:26.347Z,0.78
2018-08-17T11:57:55.043Z,1.00
2018-08-17T12:00:24.064Z,0.90
2018-08-17T12:02:52.711Z,1.10
2018-08-17T12:05:21.542Z,1.00
2018-08-17T12:07:50.430Z,0.70
2018-08-17T12:10:19.016Z,1.00
2018-08-17T12:12:47.843Z,0.65
2018-08-17T12:15:17.304Z,1.10
2018-08-17T12:17:45.935Z,1.20
2018-08-17T12:20:14.674Z,0.95
2018-08-17T12:22:43.257Z,0.82
2018-08-17T12:25:12.096Z,1.15
2018-08-17T12:27:46.891Z,0.82
2018-08-17T12:30:15.394Z,0.85
2018-08-17T12:32:44.044Z,0.93
2018-08-17T12:35:12.712Z,0.80
2018-08-17T12:37:41.410Z,0.68
2018-08-17T12:40:10.075Z,0.80
2018-08-17T12:42:39.346Z,1.02
2018-08-17T12:45:13.027Z,1.22
2018-08-17T12:47:43.066Z,1.20
2018-08-17T12:50:11.703Z,1.10
2018-08-17T12:52:40.229Z,1.00
2018-08-17T12:55:09.447Z,1.10
2018-08-17T12:57:40.846Z,1.00
2018-08-17T13:00:09.473Z,0.70
2018-08-17T13:02:38.093Z,1.40
2018-08-17T13:05:06.836Z,0.98
2018-08-17T13:07:35.346Z,1.22
2018-08-17T13:10:04.267Z,0.90
2018-08-17T13:12:32.868Z,1.00
2018-08-17T13:15:01.439Z,1.20
2018-08-17T13:17:48.637Z,0.90
2018-08-17T13:20:17.936Z,1.12
2018-08-17T13:22:46.471Z,1.00
2018-08-17T13:25:15.205Z,0.90
2018-08-17T13:27:44.271Z,0.80
2018-08-17T13:30:14.570Z,0.90
2018-08-17T13:32:43.974Z,1.25
2018-08-17T13:35:13.635Z,0.95
2018-08-17T13:37:43.089Z,0.82
2018-08-17T13:40:12.234Z,1.20
2018-08-17T13:42:41.124Z,1.02
2018-08-17T13:45:10.587Z,0.78
2018-08-17T13:47:39.151Z,1.20
2018-08-17T13:50:08.104Z,1.07
2018-08-17T13:52:36.731Z,0.90
2018-08-17T13:55:05.372Z,0.80
2018-08-17T13:57:33.866Z,1.10
2018-08-17T14:00:03.252Z,1.30
2018-08-17T14:02:31.937Z,1.10
2018-08-17T14:05:00.559Z,1.20
2018-08-17T14:07:29.167Z,1.37
2018-08-17T14:09:57.818Z,1.00
2018-08-17T14:12:26.473Z,0.90
2018-08-17T14:14:54.985Z,1.55
2018-08-17T14:17:24.355Z,0.98
2018-08-17T14:19:52.983Z,1.00
2018-08-17T14:22:21.563Z,1.12
2018-08-17T14:24:50.206Z,0.90
2018-08-17T14:27:18.857Z,1.10
2018-08-17T14:29:48.093Z,1.00
2018-08-17T14:32:16.671Z,1.05
2018-08-17T14:34:45.971Z,1.55
2018-08-17T14:37:14.483Z,0.90
2018-08-17T14:39:43.102Z,0.72
2018-08-17T14:42:11.663Z,1.35
2018-08-17T14:44:40.405Z,1.27
2018-08-17T14:47:09.002Z,1.42
2018-08-17T14:49:39.462Z,0.75
2018-08-17T14:52:08.068Z,1.00
2018-08-17T14:54:36.696Z,1.10
2018-08-17T14:57:05.368Z,1.07
2018-08-17T14:59:33.978Z,0.88
2018-08-17T15:02:02.537Z,1.42
2018-08-17T15:04:31.116Z,1.15
2018-08-17T15:06:59.699Z,1.20
2018-08-17T15:09:28.328Z,1.10
2018-08-17T15:11:56.886Z,1.02
2018-08-17T15:14:25.487Z,1.02
2018-08-17T15:16:54.133Z,1.10
2018-08-17T15:19:24.911Z,1.00
2018-08-17T15:21:53.599Z,1.22
2018-08-17T15:24:22.174Z,1.52
2018-08-17T15:26:50.819Z,1.25
2018-08-17T15:29:19.505Z,1.00
2018-08-17T15:31:48.031Z,1.40
2018-08-17T15:34:16.672Z,1.30
2018-08-17T15:36:45.734Z,1.32
2018-08-17T15:39:14.439Z,1.02
2018-08-17T15:41:45.017Z,1.10
2018-08-17T15:44:18.955Z,1.00
2018-08-17T15:46:47.627Z,1.20
2018-08-17T15:49:22.003Z,1.02
2018-08-17T15:51:50.679Z,1.55
2018-08-17T15:54:20.141Z,1.42
2018-08-17T15:56:48.765Z,1.42
2018-08-17T15:59:17.862Z,1.87
2018-08-17T16:01:46.468Z,1.30
2018-08-17T16:04:15.282Z,2.00
2018-08-17T16:06:43.876Z,1.90
2018-08-17T16:09:13.607Z,1.50
2018-08-17T16:11:42.309Z,1.20
2018-08-17T16:14:10.964Z,1.00
2018-08-17T16:16:40.963Z,0.90
2018-08-17T16:19:10.479Z,3.40
2018-08-17T16:21:39.699Z,1.80
2018-08-17T16:24:08.379Z,2.17
2018-08-17T16:26:36.906Z,1.47
2018-08-17T16:29:05.998Z,1.05
2018-08-17T16:31:40.791Z,0.85
2018-08-17T16:34:10.064Z,1.25
2018-08-17T16:36:40.963Z,1.40
2018-08-17T16:39:12.453Z,1.15
2018-08-17T16:41:41.104Z,0.90
2018-08-17T16:44:09.703Z,1.37
2018-08-17T16:46:39.642Z,1.45
2018-08-17T16:49:08.407Z,1.30
2018-08-17T16:51:37.460Z,1.32
2018-08-17T16:54:06.446Z,1.45
2018-08-17T16:56:35.337Z,1.17
2018-08-17T16:59:04.162Z,1.17
2018-08-17T17:01:34.346Z,1.15
2018-08-17T17:04:03.034Z,1.02
2018-08-17T17:06:32.221Z,1.10
2018-08-17T17:09:02.858Z,1.20
2018-08-17T17:11:31.669Z,1.20
2018-08-17T17:14:00.318Z,1.10
2018-08-17T17:16:37.294Z,1.30
2018-08-17T17:19:09.602Z,1.15
2018-08-17T17:21:41.035Z,1.20
2018-08-17T17:24:09.733Z,1.00
2018-08-17T17:26:38.324Z,1.05
2018-08-17T17:29:07.394Z,1.30
2018-08-17T17:31:36.070Z,1.27
2018-08-17T17:34:04.731Z,0.85
2018-08-17T17:36:33.299Z,1.42
2018-08-17T17:39:02.523Z,1.27
2018-08-17T17:41:32.751Z,1.10
2018-08-17T17:44:01.913Z,1.15
2018-08-17T17:46:30.650Z,1.17
2018-08-17T17:48:59.191Z,1.15
2018-08-17T17:51:28.722Z,1.40
2018-08-17T17:53:58.806Z,1.10
2018-08-17T17:56:28.149Z,1.27
2018-08-17T17:59:06.261Z,1.22
2018-08-17T18:01:35.219Z,1.50
2018-08-17T18:04:05.415Z,1.20
2018-08-17T18:06:33.998Z,1.00
2018-08-17T18:09:02.845Z,1.20
2018-08-17T18:11:31.442Z,1.40
2018-08-17T18:14:00.183Z,1.20
2018-08-17T18:16:28.866Z,1.90
2018-08-17T18:18:57.449Z,1.57
2018-08-17T18:21:32.131Z,1.35
2018-08-17T18:24:06.947Z,1.12
2018-08-17T18:26:35.974Z,1.25
2018-08-17T18:29:04.584Z,1.07
2018-08-17T18:31:33.200Z,0.98
2018-08-17T18:34:01.868Z,1.00
2018-08-17T18:36:32.005Z,1.05
2018-08-17T18:39:01.057Z,0.90
2018-08-17T18:41:29.691Z,1.27
2018-08-17T18:43:59.238Z,1.20
2018-08-17T18:46:27.895Z,1.10
2018-08-17T18:48:56.517Z,1.15
2018-08-17T18:51:25.091Z,1.10
2018-08-17T18:53:53.654Z,0.95
2018-08-17T18:56:22.244Z,1.20
2018-08-17T18:58:50.889Z,0.88
2018-08-17T19:01:19.772Z,0.98
2018-08-17T19:03:48.567Z,0.80
2018-08-17T19:06:17.100Z,0.93
2018-08-17T19:08:46.094Z,1.05
2018-08-17T19:11:14.682Z,0.98
2018-08-17T19:13:43.223Z,0.90
2018-08-17T19:16:11.961Z,0.80
2018-08-17T19:18:40.475Z,0.90
2018-08-17T19:21:12.959Z,1.07
2018-08-17T19:23:41.625Z,0.90
2018-08-17T19:26:10.910Z,0.82
2018-08-17T19:28:39.820Z,0.95
2018-08-17T19:31:08.712Z,0.98
2018-08-17T19:33:37.398Z,0.98
2018-08-17T19:36:07.576Z,1.10
2018-08-17T19:38:39.859Z,1.02
2018-08-17T19:41:08.682Z,1.05
2018-08-17T19:43:37.606Z,0.68
2018-08-17T19:46:06.665Z,0.70
2018-08-17T19:48:35.483Z,0.70
2018-08-17T19:51:10.124Z,1.00
2018-08-17T19:53:38.886Z,0.63
2018-08-17T19:56:08.261Z,0.70
2018-08-17T19:58:37.623Z,0.95
2018-08-17T20:01:08.002Z,0.87
2018-08-17T20:03:36.673Z,1.03
2018-08-17T20:06:05.360Z,1.23
2018-08-17T20:08:34.254Z,1.10
2018-08-17T20:11:02.912Z,0.80
2018-08-17T20:13:31.623Z,0.80
2018-08-17T20:16:00.201Z,0.70
2018-08-17T20:18:28.888Z,0.97
2018-08-17T20:20:57.772Z,0.93
2018-08-17T20:23:26.429Z,0.80
2018-08-17T20:25:55.272Z,0.93
2018-08-17T20:28:24.143Z,0.90
2018-08-17T20:30:52.776Z,0.83
2018-08-17T20:33:28.169Z,0.90
2018-08-17T20:35:57.615Z,0.93
2018-08-17T20:38:26.974Z,1.03
2018-08-17T20:40:59.825Z,0.70
2018-08-17T20:43:28.894Z,0.90
2018-08-17T20:45:57.586Z,0.70
2018-08-17T20:48:26.217Z,1.03
2018-08-17T20:50:54.960Z,0.83
2018-08-17T20:53:24.100Z,0.80
2018-08-17T20:55:52.685Z,1.00
2018-08-17T20:58:21.233Z,0.90
2018-08-17T21:00:49.851Z,0.73
2018-08-17T21:03:18.512Z,0.80
2018-08-17T21:05:47.046Z,1.00
2018-08-17T21:08:15.808Z,0.70
2018-08-17T21:10:44.384Z,0.67
2018-08-17T21:13:13.536Z,0.50
2018-08-17T21:15:42.895Z,0.87
2018-08-17T21:18:11.564Z,0.60
2018-08-17T21:20:40.864Z,0.70
2018-08-17T21:23:10.041Z,0.83
2018-08-17T21:25:38.852Z,0.70
2018-08-17T21:28:07.435Z,1.00
2018-08-17T21:30:36.039Z,0.97
2018-08-17T21:33:04.705Z,0.93
2018-08-17T21:35:33.339Z,0.80
2018-08-17T21:38:01.923Z,0.70
2018-08-17T21:40:31.273Z,0.90
2018-08-17T21:43:01.292Z,0.80
2018-08-17T21:45:30.182Z,0.73
2018-08-17T21:47:58.892Z,0.77
2018-08-17T21:50:27.553Z,1.00
2018-08-17T21:52:56.335Z,1.10
2018-08-17T21:55:24.924Z,0.77
2018-08-17T21:57:53.595Z,1.10
2018-08-17T22:00:28.906Z,1.03
2018-08-17T22:02:57.835Z,1.03
2018-08-17T22:05:31.659Z,1.03
2018-08-17T22:08:00.736Z,0.90
2018-08-17T22:10:30.035Z,0.77
2018-08-17T22:12:59.438Z,0.93
2018-08-17T22:15:29.623Z,1.00
2018-08-17T22:17:58.198Z,0.90
2018-08-17T22:20:26.872Z,0.70
2018-08-17T22:22:55.541Z,0.70
2018-08-17T22:25:24.297Z,0.67
2018-08-17T22:27:52.987Z,0.67
2018-08-17T22:30:24.551Z,0.70
2018-08-17T22:32:53.222Z,0.77
2018-08-17T22:35:21.960Z,0.60
2018-08-17T22:37:50.543Z,1.07
2018-08-17T22:40:19.098Z,0.70
2018-08-17T22:42:48.762Z,0.83
2018-08-17T22:45:17.718Z,0.97
2018-08-17T22:47:46.644Z,0.83
2018-08-17T22:50:15.250Z,0.97
2018-08-17T22:52:43.895Z,1.10
2018-08-17T22:55:12.514Z,0.70
2018-08-17T22:57:41.304Z,0.93
2018-08-17T23:00:18.187Z,0.80
2018-08-17T23:02:48.510Z,0.97
2018-08-17T23:05:18.894Z,0.87
2018-08-17T23:07:47.415Z,0.87
2018-08-17T23:10:17.999Z,0.70
2018-08-17T23:12:47.702Z,0.70
2018-08-17T23:15:16.229Z,0.97
2018-08-17T23:18:01.538Z,0.90
2018-08-17T23:20:36.196Z,1.00
2018-08-17T23:23:06.071Z,0.70
2018-08-17T23:25:35.029Z,0.70
2018-08-17T23:28:03.744Z,0.77
2018-08-17T23:30:32.362Z,0.87
2018-08-17T23:33:01.094Z,0.80
2018-08-17T23:35:29.879Z,0.90
2018-08-17T23:37:58.665Z,0.90
2018-08-17T23:40:27.454Z,0.73
2018-08-17T23:42:56.039Z,0.77
2018-08-17T23:45:24.620Z,0.80
2018-08-17T23:47:53.356Z,1.07
2018-08-17T23:50:22.047Z,1.00
2018-08-17T23:52:50.676Z,0.70
2018-08-17T23:55:19.278Z,0.80
2018-08-17T23:57:48.048Z,0.70
